sensor_id;sensor_type;location;lat;lon;timestamp;pressure;altitude;pressure_sealevel;temperature;humidity
69035;BME280;56091;55.756;37.412;2023-02-03T00:01:56;98209.53;;;0.18;75.13
69035;BME280;56091;55.756;37.412;2023-02-03T00:06:58;98200.19;;;0.16;75.08
69035;BME280;56091;55.756;37.412;2023-02-03T00:11:59;98210.59;;;0.17;75.06
69035;BME280;56091;55.756;37.412;2023-02-03T00:17:00;98202.28;;;0.07;75.06
69035;BME280;56091;55.756;37.412;2023-02-03T00:22:01;98211.59;;;0.16;74.93
69035;BME280;56091;55.756;37.412;2023-02-03T00:27:02;98218.28;;;0.26;75.05
69035;BME280;56091;55.756;37.412;2023-02-03T00:32:03;98218.53;;;0.17;74.68
69035;BME280;56091;55.756;37.412;2023-02-03T00:37:04;98219.75;;;0.15;75.38
69035;BME280;56091;55.756;37.412;2023-02-03T00:42:06;98224.00;;;0.23;75.51
69035;BME280;56091;55.756;37.412;2023-02-03T00:47:10;98210.16;;;0.21;75.11
69035;BME280;56091;55.756;37.412;2023-02-03T00:52:10;98205.22;;;0.24;75.38
69035;BME280;56091;55.756;37.412;2023-02-03T00:57:12;98217.41;;;0.32;75.19
69035;BME280;56091;55.756;37.412;2023-02-03T01:02:13;98227.03;;;0.33;75.40
69035;BME280;56091;55.756;37.412;2023-02-03T01:07:14;98196.56;;;0.10;75.92
69035;BME280;56091;55.756;37.412;2023-02-03T01:12:15;98216.91;;;0.16;76.20
69035;BME280;56091;55.756;37.412;2023-02-03T01:17:15;98213.25;;;0.17;76.64
69035;BME280;56091;55.756;37.412;2023-02-03T01:22:17;98208.34;;;0.14;76.45
69035;BME280;56091;55.756;37.412;2023-02-03T01:27:20;98206.09;;;0.18;76.95
69035;BME280;56091;55.756;37.412;2023-02-03T01:32:21;98210.75;;;0.23;76.82
69035;BME280;56091;55.756;37.412;2023-02-03T01:37:21;98208.69;;;0.25;76.83
69035;BME280;56091;55.756;37.412;2023-02-03T01:42:22;98194.50;;;0.12;76.93
69035;BME280;56091;55.756;37.412;2023-02-03T01:52:31;98205.09;;;0.12;77.47
69035;BME280;56091;55.756;37.412;2023-02-03T01:57:39;98195.28;;;0.13;77.96
69035;BME280;56091;55.756;37.412;2023-02-03T02:02:44;98201.66;;;0.12;77.95
69035;BME280;56091;55.756;37.412;2023-02-03T02:07:46;98193.47;;;0.13;78.41
69035;BME280;56091;55.756;37.412;2023-02-03T02:12:48;98196.28;;;0.18;78.12
69035;BME280;56091;55.756;37.412;2023-02-03T02:23:24;98197.16;;;0.12;78.83
69035;BME280;56091;55.756;37.412;2023-02-03T02:44:21;98189.53;;;0.23;78.49
69035;BME280;56091;55.756;37.412;2023-02-03T02:49:29;98189.69;;;0.28;78.06
69035;BME280;56091;55.756;37.412;2023-02-03T02:54:36;98181.47;;;0.36;77.93
69035;BME280;56091;55.756;37.412;2023-02-03T02:59:39;98169.94;;;0.49;79.33
69035;BME280;56091;55.756;37.412;2023-02-03T03:04:42;98181.00;;;0.71;76.78
69035;BME280;56091;55.756;37.412;2023-02-03T03:09:55;98184.69;;;0.70;76.46
69035;BME280;56091;55.756;37.412;2023-02-03T03:15:03;98186.47;;;0.51;77.06
69035;BME280;56091;55.756;37.412;2023-02-03T03:20:11;98182.03;;;0.45;77.20
69035;BME280;56091;55.756;37.412;2023-02-03T03:25:17;98190.97;;;0.50;77.42
69035;BME280;56091;55.756;37.412;2023-02-03T03:30:25;98191.78;;;0.51;77.50
69035;BME280;56091;55.756;37.412;2023-02-03T03:40:53;98190.78;;;0.45;77.81
69035;BME280;56091;55.756;37.412;2023-02-03T03:46:29;98190.78;;;0.45;78.04
69035;BME280;56091;55.756;37.412;2023-02-03T03:51:37;98193.63;;;0.50;78.25
69035;BME280;56091;55.756;37.412;2023-02-03T03:57:04;98194.63;;;1.00;79.41
69035;BME280;56091;55.756;37.412;2023-02-03T04:02:03;98193.19;;;1.22;76.00
69035;BME280;56091;55.756;37.412;2023-02-03T04:07:04;98180.97;;;0.96;75.99
69035;BME280;56091;55.756;37.412;2023-02-03T04:12:12;98189.88;;;0.83;76.82
69035;BME280;56091;55.756;37.412;2023-02-03T04:17:15;98197.09;;;0.76;77.18
69035;BME280;56091;55.756;37.412;2023-02-03T04:22:19;98198.50;;;0.78;77.46
69035;BME280;56091;55.756;37.412;2023-02-03T04:27:20;98202.25;;;0.71;77.28
69035;BME280;56091;55.756;37.412;2023-02-03T04:32:21;98194.91;;;0.66;77.74
69035;BME280;56091;55.756;37.412;2023-02-03T04:37:24;98197.16;;;0.69;77.77
69035;BME280;56091;55.756;37.412;2023-02-03T04:42:28;98194.09;;;0.66;77.83
69035;BME280;56091;55.756;37.412;2023-02-03T04:47:28;98204.31;;;0.69;77.89
69035;BME280;56091;55.756;37.412;2023-02-03T04:52:29;98196.66;;;0.79;77.88
69035;BME280;56091;55.756;37.412;2023-02-03T04:57:30;98197.03;;;0.83;77.80
69035;BME280;56091;55.756;37.412;2023-02-03T05:02:31;98199.31;;;0.79;77.79
69035;BME280;56091;55.756;37.412;2023-02-03T05:07:32;98200.94;;;0.80;77.80
69035;BME280;56091;55.756;37.412;2023-02-03T05:12:32;98199.09;;;0.81;77.57
69035;BME280;56091;55.756;37.412;2023-02-03T05:17:33;98208.53;;;0.76;78.17
69035;BME280;56091;55.756;37.412;2023-02-03T05:22:38;98191.50;;;0.84;77.97
69035;BME280;56091;55.756;37.412;2023-02-03T05:27:40;98200.22;;;0.91;77.53
69035;BME280;56091;55.756;37.412;2023-02-03T05:32:41;98200.06;;;0.86;77.24
69035;BME280;56091;55.756;37.412;2023-02-03T05:37:45;98181.00;;;0.71;77.40
69035;BME280;56091;55.756;37.412;2023-02-03T05:42:47;98203.38;;;0.82;76.93
69035;BME280;56091;55.756;37.412;2023-02-03T05:47:48;98201.31;;;0.84;76.99
69035;BME280;56091;55.756;37.412;2023-02-03T05:52:49;98197.03;;;0.83;76.75
69035;BME280;56091;55.756;37.412;2023-02-03T05:57:50;98201.75;;;0.81;76.60
69035;BME280;56091;55.756;37.412;2023-02-03T06:02:52;98168.44;;;0.60;76.42
69035;BME280;56091;55.756;37.412;2023-02-03T06:07:54;98207.47;;;0.77;76.93
69035;BME280;56091;55.756;37.412;2023-02-03T06:12:54;98202.25;;;0.71;76.95
69035;BME280;56091;55.756;37.412;2023-02-03T06:17:55;98205.69;;;0.71;76.92
69035;BME280;56091;55.756;37.412;2023-02-03T06:22:56;98211.94;;;0.84;76.88
69035;BME280;56091;55.756;37.412;2023-02-03T06:27:58;98210.34;;;1.01;76.60
69035;BME280;56091;55.756;37.412;2023-02-03T06:32:59;98205.16;;;1.06;75.98
69035;BME280;56091;55.756;37.412;2023-02-03T06:38:00;98216.88;;;1.24;75.60
69035;BME280;56091;55.756;37.412;2023-02-03T06:43:00;98223.28;;;1.34;75.69
69035;BME280;56091;55.756;37.412;2023-02-03T06:48:01;98222.25;;;1.35;75.61
69035;BME280;56091;55.756;37.412;2023-02-03T06:53:02;98208.97;;;1.35;75.39
69035;BME280;56091;55.756;37.412;2023-02-03T06:58:03;98208.41;;;1.52;75.00
69035;BME280;56091;55.756;37.412;2023-02-03T07:03:03;98210.31;;;1.63;74.55
69035;BME280;56091;55.756;37.412;2023-02-03T07:08:04;98203.78;;;1.59;74.24
69035;BME280;56091;55.756;37.412;2023-02-03T07:13:05;98183.00;;;1.56;74.34
69035;BME280;56091;55.756;37.412;2023-02-03T07:18:07;98205.28;;;1.73;73.95
69035;BME280;56091;55.756;37.412;2023-02-03T07:23:08;98200.69;;;1.81;73.09
69035;BME280;56091;55.756;37.412;2023-02-03T07:28:09;98211.03;;;2.01;72.60
69035;BME280;56091;55.756;37.412;2023-02-03T07:33:09;98219.34;;;1.92;72.54
69035;BME280;56091;55.756;37.412;2023-02-03T07:38:10;98193.53;;;1.63;72.78
69035;BME280;56091;55.756;37.412;2023-02-03T07:43:11;98216.31;;;1.89;72.55
69035;BME280;56091;55.756;37.412;2023-02-03T07:48:12;98213.22;;;1.92;72.46
69035;BME280;56091;55.756;37.412;2023-02-03T07:53:16;98213.44;;;1.90;71.66
69035;BME280;56091;55.756;37.412;2023-02-03T07:58:17;98200.59;;;2.18;71.00
69035;BME280;56091;55.756;37.412;2023-02-03T08:03:17;98196.72;;;2.44;70.12
69035;BME280;56091;55.756;37.412;2023-02-03T08:08:19;98188.59;;;2.39;69.48
69035;BME280;56091;55.756;37.412;2023-02-03T08:13:19;98193.72;;;2.40;69.56
69035;BME280;56091;55.756;37.412;2023-02-03T08:18:21;98201.34;;;2.37;69.90
69035;BME280;56091;55.756;37.412;2023-02-03T08:23:22;98190.31;;;2.33;70.58
69035;BME280;56091;55.756;37.412;2023-02-03T08:28:22;98193.94;;;2.39;70.84
69035;BME280;56091;55.756;37.412;2023-02-03T08:33:26;98187.78;;;2.26;71.49
69035;BME280;56091;55.756;37.412;2023-02-03T08:38:28;98194.50;;;2.29;71.91
69035;BME280;56091;55.756;37.412;2023-02-03T08:43:31;98189.63;;;2.26;72.24
69035;BME280;56091;55.756;37.412;2023-02-03T08:48:32;98190.66;;;2.25;72.94
69035;BME280;56091;55.756;37.412;2023-02-03T08:53:33;98193.97;;;2.08;73.66
69035;BME280;56091;55.756;37.412;2023-02-03T08:58:34;98189.94;;;2.18;73.82
69035;BME280;56091;55.756;37.412;2023-02-03T09:03:35;98191.16;;;2.33;73.54
69035;BME280;56091;55.756;37.412;2023-02-03T09:08:36;98185.50;;;2.42;73.13
69035;BME280;56091;55.756;37.412;2023-02-03T09:13:38;98190.88;;;2.23;74.08
69035;BME280;56091;55.756;37.412;2023-02-03T09:18:40;98184.44;;;2.01;75.09
69035;BME280;56091;55.756;37.412;2023-02-03T09:23:41;98184.03;;;2.15;75.24
69035;BME280;56091;55.756;37.412;2023-02-03T09:28:42;98181.53;;;2.32;74.78
69035;BME280;56091;55.756;37.412;2023-02-03T09:33:43;98168.38;;;2.38;73.94
69035;BME280;56091;55.756;37.412;2023-02-03T09:38:44;98183.69;;;2.66;73.91
69035;BME280;56091;55.756;37.412;2023-02-03T09:43:46;98188.91;;;2.84;73.14
69035;BME280;56091;55.756;37.412;2023-02-03T09:48:53;98173.97;;;2.71;72.80
69035;BME280;56091;55.756;37.412;2023-02-03T09:54:40;98188.91;;;2.72;73.05
69035;BME280;56091;55.756;37.412;2023-02-03T09:59:43;98178.25;;;2.84;72.78
69035;BME280;56091;55.756;37.412;2023-02-03T10:04:57;98180.56;;;3.04;72.13
69035;BME280;56091;55.756;37.412;2023-02-03T10:10:11;98183.22;;;3.04;71.81
69035;BME280;56091;55.756;37.412;2023-02-03T10:20:46;98185.78;;;2.99;71.65
69035;BME280;56091;55.756;37.412;2023-02-03T10:25:52;98176.75;;;2.88;71.85
69035;BME280;56091;55.756;37.412;2023-02-03T10:30:57;98175.72;;;2.78;71.52
69035;BME280;56091;55.756;37.412;2023-02-03T10:36:21;98181.59;;;2.80;71.21
69035;BME280;56091;55.756;37.412;2023-02-03T10:41:23;98169.91;;;2.69;71.25
69035;BME280;56091;55.756;37.412;2023-02-03T10:46:29;98173.28;;;2.64;70.56
69035;BME280;56091;55.756;37.412;2023-02-03T10:51:42;98163.91;;;2.73;70.79
69035;BME280;56091;55.756;37.412;2023-02-03T10:56:44;98165.19;;;2.95;69.85
69035;BME280;56091;55.756;37.412;2023-02-03T11:01:46;98157.19;;;2.95;69.48
69035;BME280;56091;55.756;37.412;2023-02-03T11:06:54;98154.97;;;2.80;70.59
69035;BME280;56091;55.756;37.412;2023-02-03T11:17:19;98142.94;;;2.77;71.62
69035;BME280;56091;55.756;37.412;2023-02-03T11:22:33;98152.56;;;3.02;70.55
69035;BME280;56091;55.756;37.412;2023-02-03T11:27:36;98145.47;;;3.19;69.54
69035;BME280;56091;55.756;37.412;2023-02-03T11:32:39;98145.81;;;3.23;69.07
69035;BME280;56091;55.756;37.412;2023-02-03T11:37:42;98147.38;;;3.36;68.70
69035;BME280;56091;55.756;37.412;2023-02-03T11:43:01;98099.59;;;2.93;68.80
69035;BME280;56091;55.756;37.412;2023-02-03T11:48:25;98151.13;;;3.11;68.98
69035;BME280;56091;55.756;37.412;2023-02-03T11:59:15;98147.28;;;3.19;69.58
69035;BME280;56091;55.756;37.412;2023-02-03T12:14:46;98139.88;;;3.09;69.62
69035;BME280;56091;55.756;37.412;2023-02-03T12:20:34;98128.66;;;3.07;69.73
69035;BME280;56091;55.756;37.412;2023-02-03T12:36:21;98128.31;;;3.03;69.05
69035;BME280;56091;55.756;37.412;2023-02-03T12:41:37;98120.34;;;2.91;68.59
69035;BME280;56091;55.756;37.412;2023-02-03T12:46:45;98132.63;;;2.69;67.92
69035;BME280;56091;55.756;37.412;2023-02-03T12:51:54;98120.22;;;2.74;68.14
69035;BME280;56091;55.756;37.412;2023-02-03T12:57:24;98133.56;;;2.63;68.25
69035;BME280;56091;55.756;37.412;2023-02-03T13:02:31;98118.97;;;2.53;68.37
69035;BME280;56091;55.756;37.412;2023-02-03T13:07:57;98123.56;;;2.46;69.34
69035;BME280;56091;55.756;37.412;2023-02-03T13:13:00;98129.59;;;2.53;70.24
69035;BME280;56091;55.756;37.412;2023-02-03T13:18:24;98128.00;;;2.52;70.75
69035;BME280;56091;55.756;37.412;2023-02-03T13:23:27;98131.34;;;2.48;71.16
69035;BME280;56091;55.756;37.412;2023-02-03T13:38:57;98121.34;;;2.31;70.22
69035;BME280;56091;55.756;37.412;2023-02-03T13:44:10;98121.84;;;2.28;70.29
69035;BME280;56091;55.756;37.412;2023-02-03T13:49:20;98123.19;;;2.19;70.54
69035;BME280;56091;55.756;37.412;2023-02-03T13:54:33;98128.28;;;2.09;71.68
69035;BME280;56091;55.756;37.412;2023-02-03T13:59:42;98141.59;;;2.09;73.00
69035;BME280;56091;55.756;37.412;2023-02-03T14:09:46;98123.69;;;1.86;75.12
69035;BME280;56091;55.756;37.412;2023-02-03T14:24:53;98140.47;;;1.56;79.17
69035;BME280;56091;55.756;37.412;2023-02-03T14:30:21;98141.06;;;1.40;80.27
69035;BME280;56091;55.756;37.412;2023-02-03T14:35:31;98135.31;;;1.43;80.92
69035;BME280;56091;55.756;37.412;2023-02-03T14:57:03;98135.78;;;1.70;80.10
69035;BME280;56091;55.756;37.412;2023-02-03T15:02:20;98139.59;;;1.74;79.78
69035;BME280;56091;55.756;37.412;2023-02-03T15:07:42;98136.56;;;1.70;79.62
69035;BME280;56091;55.756;37.412;2023-02-03T15:12:54;98134.81;;;1.64;79.58
69035;BME280;56091;55.756;37.412;2023-02-03T15:17:57;98139.69;;;1.67;80.21
69035;BME280;56091;55.756;37.412;2023-02-03T15:23:00;98138.75;;;1.62;79.91
69035;BME280;56091;55.756;37.412;2023-02-03T15:28:12;98135.88;;;1.63;80.86
69035;BME280;56091;55.756;37.412;2023-02-03T15:33:17;98140.50;;;1.68;80.52
69035;BME280;56091;55.756;37.412;2023-02-03T15:38:29;98137.22;;;1.54;81.54
69035;BME280;56091;55.756;37.412;2023-02-03T15:43:39;98154.03;;;1.48;82.11
69035;BME280;56091;55.756;37.412;2023-02-03T15:49:06;98152.97;;;1.37;82.11
69035;BME280;56091;55.756;37.412;2023-02-03T15:59:39;98155.97;;;1.41;81.93
69035;BME280;56091;55.756;37.412;2023-02-03T16:04:42;98174.28;;;1.49;81.39
69035;BME280;56091;55.756;37.412;2023-02-03T16:09:43;98166.31;;;1.49;81.00
69035;BME280;56091;55.756;37.412;2023-02-03T16:14:44;98172.06;;;1.46;80.44
69035;BME280;56091;55.756;37.412;2023-02-03T16:19:46;98162.41;;;1.33;80.29
69035;BME280;56091;55.756;37.412;2023-02-03T16:24:50;98168.06;;;1.36;80.98
69035;BME280;56091;55.756;37.412;2023-02-03T16:35:10;98173.16;;;1.38;80.64
69035;BME280;56091;55.756;37.412;2023-02-03T16:40:33;98177.53;;;1.32;80.56
69035;BME280;56091;55.756;37.412;2023-02-03T16:45:54;98183.72;;;1.26;80.50
69035;BME280;56091;55.756;37.412;2023-02-03T16:51:15;98187.13;;;1.15;81.21
69035;BME280;56091;55.756;37.412;2023-02-03T16:56:16;98190.13;;;1.00;83.02
69035;BME280;56091;55.756;37.412;2023-02-03T17:01:18;98186.63;;;0.81;82.54
69035;BME280;56091;55.756;37.412;2023-02-03T17:06:19;98181.16;;;0.76;83.05
69035;BME280;56091;55.756;37.412;2023-02-03T17:11:21;98181.50;;;0.61;82.20
69035;BME280;56091;55.756;37.412;2023-02-03T17:16:24;98191.13;;;0.55;83.07
69035;BME280;56091;55.756;37.412;2023-02-03T17:21:27;98194.31;;;0.39;82.79
69035;BME280;56091;55.756;37.412;2023-02-03T17:26:28;98204.22;;;0.50;83.15
69035;BME280;56091;55.756;37.412;2023-02-03T17:31:30;98206.09;;;0.50;81.87
69035;BME280;56091;55.756;37.412;2023-02-03T17:36:33;98215.50;;;0.46;82.29
69035;BME280;56091;55.756;37.412;2023-02-03T17:41:34;98220.84;;;0.39;81.27
69035;BME280;56091;55.756;37.412;2023-02-03T17:46:35;98222.31;;;0.35;81.36
69035;BME280;56091;55.756;37.412;2023-02-03T17:51:35;98226.81;;;0.34;80.65
69035;BME280;56091;55.756;37.412;2023-02-03T17:56:36;98223.78;;;0.31;79.97
69035;BME280;56091;55.756;37.412;2023-02-03T18:01:37;98218.75;;;0.16;79.09
69035;BME280;56091;55.756;37.412;2023-02-03T18:06:38;98196.22;;;0.00;77.31
69035;BME280;56091;55.756;37.412;2023-02-03T18:11:40;98213.88;;;0.13;77.71
69035;BME280;56091;55.756;37.412;2023-02-03T18:16:41;98230.75;;;0.25;77.80
69035;BME280;56091;55.756;37.412;2023-02-03T18:21:43;98229.09;;;0.24;77.31
69035;BME280;56091;55.756;37.412;2023-02-03T18:26:47;98224.59;;;0.25;78.11
69035;BME280;56091;55.756;37.412;2023-02-03T18:31:49;98174.28;;;-0.21;78.44
69035;BME280;56091;55.756;37.412;2023-02-03T18:36:49;98238.34;;;0.15;78.39
69035;BME280;56091;55.756;37.412;2023-02-03T18:41:50;98239.00;;;0.04;78.11
69035;BME280;56091;55.756;37.412;2023-02-03T18:46:54;98245.22;;;-0.09;78.70
69035;BME280;56091;55.756;37.412;2023-02-03T18:51:56;98241.78;;;-0.23;79.14
69035;BME280;56091;55.756;37.412;2023-02-03T18:56:57;98240.63;;;-0.34;79.19
69035;BME280;56091;55.756;37.412;2023-02-03T19:01:58;98252.63;;;-0.25;79.20
69035;BME280;56091;55.756;37.412;2023-02-03T19:07:00;98258.72;;;-0.31;78.57
69035;BME280;56091;55.756;37.412;2023-02-03T19:12:01;98230.66;;;-0.52;77.56
69035;BME280;56091;55.756;37.412;2023-02-03T19:17:06;98260.38;;;-0.36;76.99
69035;BME280;56091;55.756;37.412;2023-02-03T19:22:08;98255.53;;;-0.46;77.10
69035;BME280;56091;55.756;37.412;2023-02-03T19:27:13;98267.72;;;-0.32;76.98
69035;BME280;56091;55.756;37.412;2023-02-03T19:32:13;98211.13;;;-0.57;76.65
69035;BME280;56091;55.756;37.412;2023-02-03T19:37:14;98261.22;;;0.09;75.89
69035;BME280;56091;55.756;37.412;2023-02-03T19:42:16;98237.38;;;0.03;75.76
69035;BME280;56091;55.756;37.412;2023-02-03T19:47:17;98268.03;;;0.30;75.61
69035;BME280;56091;55.756;37.412;2023-02-03T19:52:18;98274.00;;;0.26;75.82
69035;BME280;56091;55.756;37.412;2023-02-03T19:57:18;98291.56;;;0.20;76.28
69035;BME280;56091;55.756;37.412;2023-02-03T20:02:19;98289.09;;;0.25;76.55
69035;BME280;56091;55.756;37.412;2023-02-03T20:07:20;98269.41;;;0.01;77.13
69035;BME280;56091;55.756;37.412;2023-02-03T20:12:24;98296.91;;;0.13;77.41
69035;BME280;56091;55.756;37.412;2023-02-03T20:17:26;98291.03;;;0.05;77.28
69035;BME280;56091;55.756;37.412;2023-02-03T20:22:27;98298.56;;;0.08;77.63
69035;BME280;56091;55.756;37.412;2023-02-03T20:27:28;98309.41;;;-0.01;78.02
69035;BME280;56091;55.756;37.412;2023-02-03T20:32:29;98310.84;;;-0.05;77.48
69035;BME280;56091;55.756;37.412;2023-02-03T20:37:30;98326.34;;;-0.02;76.64
69035;BME280;56091;55.756;37.412;2023-02-03T20:42:30;98322.69;;;-0.14;75.96
69035;BME280;56091;55.756;37.412;2023-02-03T20:47:32;98337.00;;;-0.15;75.83
69035;BME280;56091;55.756;37.412;2023-02-03T20:52:33;98323.09;;;-0.10;74.94
69035;BME280;56091;55.756;37.412;2023-02-03T20:57:33;98332.47;;;-0.01;75.09
69035;BME280;56091;55.756;37.412;2023-02-03T21:02:34;98343.88;;;0.06;75.15
69035;BME280;56091;55.756;37.412;2023-02-03T21:07:55;98355.88;;;0.15;74.90
69035;BME280;56091;55.756;37.412;2023-02-03T21:12:56;98352.63;;;0.13;75.35
69035;BME280;56091;55.756;37.412;2023-02-03T21:17:59;98343.41;;;0.09;75.25
69035;BME280;56091;55.756;37.412;2023-02-03T21:23:00;98324.69;;;0.04;74.58
69035;BME280;56091;55.756;37.412;2023-02-03T21:28:01;98355.88;;;0.15;74.77
69035;BME280;56091;55.756;37.412;2023-02-03T21:33:32;98349.16;;;0.06;75.15
69035;BME280;56091;55.756;37.412;2023-02-03T21:38:34;98365.63;;;0.22;75.26
69035;BME280;56091;55.756;37.412;2023-02-03T21:43:36;98365.44;;;0.23;75.62
69035;BME280;56091;55.756;37.412;2023-02-03T21:48:37;98367.63;;;0.26;75.42
69035;BME280;56091;55.756;37.412;2023-02-03T21:58:51;98389.50;;;0.22;75.45
69035;BME280;56091;55.756;37.412;2023-02-03T22:03:54;98379.69;;;0.22;75.84
69035;BME280;56091;55.756;37.412;2023-02-03T22:08:56;98376.84;;;0.24;75.96
69035;BME280;56091;55.756;37.412;2023-02-03T22:14:02;98381.75;;;0.20;76.03
69035;BME280;56091;55.756;37.412;2023-02-03T22:19:03;98385.59;;;0.24;76.08
69035;BME280;56091;55.756;37.412;2023-02-03T22:24:05;98382.41;;;0.15;76.75
69035;BME280;56091;55.756;37.412;2023-02-03T22:29:06;98372.81;;;0.08;76.88
69035;BME280;56091;55.756;37.412;2023-02-03T22:34:07;98368.56;;;0.00;77.24
69035;BME280;56091;55.756;37.412;2023-02-03T22:39:08;98384.44;;;0.07;77.41
69035;BME280;56091;55.756;37.412;2023-02-03T22:44:10;98380.59;;;0.03;78.28
69035;BME280;56091;55.756;37.412;2023-02-03T22:49:15;98396.09;;;-0.08;78.27
69035;BME280;56091;55.756;37.412;2023-02-03T22:54:16;98392.03;;;-0.04;78.52
69035;BME280;56091;55.756;37.412;2023-02-03T22:59:16;98395.50;;;-0.03;78.73
69035;BME280;56091;55.756;37.412;2023-02-03T23:04:17;98399.78;;;-0.09;79.01
69035;BME280;56091;55.756;37.412;2023-02-03T23:09:18;98406.69;;;-0.01;78.98
69035;BME280;56091;55.756;37.412;2023-02-03T23:14:18;98404.25;;;-0.03;78.80
69035;BME280;56091;55.756;37.412;2023-02-03T23:19:19;98405.50;;;-0.12;79.14
69035;BME280;56091;55.756;37.412;2023-02-03T23:24:20;98410.00;;;-0.12;79.06
69035;BME280;56091;55.756;37.412;2023-02-03T23:29:21;98411.41;;;-0.03;79.03
69035;BME280;56091;55.756;37.412;2023-02-03T23:34:22;98414.06;;;-0.03;78.85
69035;BME280;56091;55.756;37.412;2023-02-03T23:39:44;98418.53;;;-0.04;78.85
69035;BME280;56091;55.756;37.412;2023-02-03T23:44:45;98413.00;;;-0.02;78.65
69035;BME280;56091;55.756;37.412;2023-02-03T23:49:46;98416.09;;;-0.05;78.54
69035;BME280;56091;55.756;37.412;2023-02-03T23:54:46;98426.69;;;-0.05;78.49
69035;BME280;56091;55.756;37.412;2023-02-03T23:59:47;98425.66;;;-0.04;78.64
